sensor_id;sensor_type;location;lat;lon;timestamp;pressure;altitude;pressure_sealevel;temperature;humidity
31761;BME280;18335;51.486;7.562;2023-03-03T00:00:42;100913.94;;;0.55;100.00
31761;BME280;18335;51.486;7.562;2023-03-03T00:03:11;100918.63;;;0.67;100.00
31761;BME280;18335;51.486;7.562;2023-03-03T00:05:41;100917.84;;;0.49;100.00
31761;BME280;18335;51.486;7.562;2023-03-03T00:08:08;100929.53;;;0.48;100.00
31761;BME280;18335;51.486;7.562;2023-03-03T00:10:37;100933.25;;;0.46;100.00
31761;BME280;18335;51.486;7.562;2023-03-03T00:13:06;100928.66;;;0.48;100.00
31761;BME280;18335;51.486;7.562;2023-03-03T00:15:38;100923.19;;;0.34;100.00
31761;BME280;18335;51.486;7.562;2023-03-03T00:18:16;100926.84;;;0.33;100.00
31761;BME280;18335;51.486;7.562;2023-03-03T00:20:48;100922.53;;;0.46;100.00
31761;BME280;18335;51.486;7.562;2023-03-03T00:23:19;100922.34;;;0.49;100.00
31761;BME280;18335;51.486;7.562;2023-03-03T00:25:52;100917.25;;;0.44;100.00
31761;BME280;18335;51.486;7.562;2023-03-03T00:28:23;100918.09;;;0.45;100.00
31761;BME280;18335;51.486;7.562;2023-03-03T00:30:50;100916.44;;;0.42;100.00
31761;BME280;18335;51.486;7.562;2023-03-03T00:33:29;100922.16;;;0.36;100.00
31761;BME280;18335;51.486;7.562;2023-03-03T00:36:24;100915.75;;;0.39;100.00
31761;BME280;18335;51.486;7.562;2023-03-03T00:38:53;100924.16;;;0.33;100.00
31761;BME280;18335;51.486;7.562;2023-03-03T00:41:24;100921.91;;;0.41;100.00
31761;BME280;18335;51.486;7.562;2023-03-03T00:43:52;100928.41;;;0.37;100.00
31761;BME280;18335;51.486;7.562;2023-03-03T00:46:21;100929.00;;;0.42;100.00
31761;BME280;18335;51.486;7.562;2023-03-03T00:48:49;100936.28;;;0.40;100.00
31761;BME280;18335;51.486;7.562;2023-03-03T00:51:25;100928.22;;;0.40;100.00
31761;BME280;18335;51.486;7.562;2023-03-03T00:53:54;100934.91;;;0.33;100.00
31761;BME280;18335;51.486;7.562;2023-03-03T00:56:22;100927.34;;;0.39;100.00
31761;BME280;18335;51.486;7.562;2023-03-03T00:58:49;100924.25;;;0.31;100.00
31761;BME280;18335;51.486;7.562;2023-03-03T01:01:18;100934.44;;;0.25;100.00
31761;BME280;18335;51.486;7.562;2023-03-03T01:03:49;100926.97;;;0.14;100.00
31761;BME280;18335;51.486;7.562;2023-03-03T01:06:16;100927.97;;;0.29;100.00
31761;BME280;18335;51.486;7.562;2023-03-03T01:08:43;100923.09;;;0.20;100.00
31761;BME280;18335;51.486;7.562;2023-03-03T01:11:12;100932.56;;;0.27;100.00
31761;BME280;18335;51.486;7.562;2023-03-03T01:13:44;100920.81;;;0.12;100.00
31761;BME280;18335;51.486;7.562;2023-03-03T01:16:13;100927.06;;;0.13;100.00
31761;BME280;18335;51.486;7.562;2023-03-03T01:18:40;100935.47;;;0.22;100.00
31761;BME280;18335;51.486;7.562;2023-03-03T01:21:07;100935.84;;;0.32;100.00
31761;BME280;18335;51.486;7.562;2023-03-03T01:23:34;100938.69;;;0.29;100.00
31761;BME280;18335;51.486;7.562;2023-03-03T01:26:02;100935.47;;;0.22;100.00
31761;BME280;18335;51.486;7.562;2023-03-03T01:28:29;100928.63;;;0.17;100.00
31761;BME280;18335;51.486;7.562;2023-03-03T01:31:01;100924.03;;;0.19;100.00
31761;BME280;18335;51.486;7.562;2023-03-03T01:33:28;100923.88;;;0.22;100.00
31761;BME280;18335;51.486;7.562;2023-03-03T01:35:56;100924.94;;;0.35;100.00
31761;BME280;18335;51.486;7.562;2023-03-03T01:38:23;100930.91;;;0.40;100.00
31761;BME280;18335;51.486;7.562;2023-03-03T01:40:53;100926.31;;;0.26;100.00
31761;BME280;18335;51.486;7.562;2023-03-03T01:43:20;100917.78;;;0.18;100.00
31761;BME280;18335;51.486;7.562;2023-03-03T01:46:25;100919.81;;;0.30;100.00
31761;BME280;18335;51.486;7.562;2023-03-03T01:48:57;100922.84;;;0.40;100.00
31761;BME280;18335;51.486;7.562;2023-03-03T01:51:30;100925.97;;;0.32;100.00
31761;BME280;18335;51.486;7.562;2023-03-03T01:54:00;100920.06;;;0.26;100.00
31761;BME280;18335;51.486;7.562;2023-03-03T01:56:28;100932.03;;;0.20;100.00
31761;BME280;18335;51.486;7.562;2023-03-03T01:58:58;100937.00;;;0.11;100.00
31761;BME280;18335;51.486;7.562;2023-03-03T02:01:28;100933.44;;;0.10;100.00
31761;BME280;18335;51.486;7.562;2023-03-03T02:03:57;100931.91;;;0.22;100.00
31761;BME280;18335;51.486;7.562;2023-03-03T02:06:27;100925.28;;;0.29;100.00
31761;BME280;18335;51.486;7.562;2023-03-03T02:08:58;100914.38;;;0.32;100.00
31761;BME280;18335;51.486;7.562;2023-03-03T02:11:29;100919.22;;;0.41;100.00
31761;BME280;18335;51.486;7.562;2023-03-03T02:13:57;100908.41;;;0.42;100.00
31761;BME280;18335;51.486;7.562;2023-03-03T02:16:24;100891.94;;;0.48;100.00
31761;BME280;18335;51.486;7.562;2023-03-03T02:18:52;100892.72;;;0.35;100.00
31761;BME280;18335;51.486;7.562;2023-03-03T02:21:21;100903.84;;;0.44;100.00
31761;BME280;18335;51.486;7.562;2023-03-03T02:23:52;100907.97;;;0.34;100.00
31761;BME280;18335;51.486;7.562;2023-03-03T02:26:23;100908.06;;;0.33;100.00
31761;BME280;18335;51.486;7.562;2023-03-03T02:28:56;100910.91;;;0.30;100.00
31761;BME280;18335;51.486;7.562;2023-03-03T02:31:25;100923.19;;;0.34;100.00
31761;BME280;18335;51.486;7.562;2023-03-03T02:33:53;100928.53;;;0.18;100.00
31761;BME280;18335;51.486;7.562;2023-03-03T02:36:22;100918.34;;;0.25;100.00
31761;BME280;18335;51.486;7.562;2023-03-03T02:38:54;100925.94;;;0.17;100.00
31761;BME280;18335;51.486;7.562;2023-03-03T02:41:29;100920.25;;;0.23;100.00
31761;BME280;18335;51.486;7.562;2023-03-03T02:44:00;100917.22;;;0.29;100.00
31761;BME280;18335;51.486;7.562;2023-03-03T02:46:32;100913.78;;;0.27;100.00
31761;BME280;18335;51.486;7.562;2023-03-03T02:48:59;100914.09;;;0.21;100.00
31761;BME280;18335;51.486;7.562;2023-03-03T02:51:26;100916.00;;;0.34;100.00
31761;BME280;18335;51.486;7.562;2023-03-03T02:53:53;100918.66;;;0.19;100.00
31761;BME280;18335;51.486;7.562;2023-03-03T02:56:20;100911.75;;;0.30;100.00
31761;BME280;18335;51.486;7.562;2023-03-03T02:58:48;100902.16;;;0.42;100.00
31761;BME280;18335;51.486;7.562;2023-03-03T03:01:16;100909.00;;;0.32;100.00
31761;BME280;18335;51.486;7.562;2023-03-03T03:03:43;100904.66;;;0.45;100.00
31761;BME280;18335;51.486;7.562;2023-03-03T03:06:10;100905.47;;;0.47;100.00
31761;BME280;18335;51.486;7.562;2023-03-03T03:08:36;100904.59;;;0.46;100.00
31761;BME280;18335;51.486;7.562;2023-03-03T03:11:04;100902.44;;;0.53;100.00
31761;BME280;18335;51.486;7.562;2023-03-03T03:13:32;100912.84;;;0.59;100.00
31761;BME280;18335;51.486;7.562;2023-03-03T03:16:00;100922.00;;;0.55;100.00
31761;BME280;18335;51.486;7.562;2023-03-03T03:18:28;100918.22;;;0.59;100.00
31761;BME280;18335;51.486;7.562;2023-03-03T03:20:56;100912.84;;;0.59;100.00
31761;BME280;18335;51.486;7.562;2023-03-03T03:23:23;100913.53;;;0.47;100.00
31761;BME280;18335;51.486;7.562;2023-03-03T03:25:49;100908.00;;;0.50;100.00
31761;BME280;18335;51.486;7.562;2023-03-03T03:28:23;100911.88;;;0.44;100.00
31761;BME280;18335;51.486;7.562;2023-03-03T03:30:50;100913.53;;;0.47;100.00
31761;BME280;18335;51.486;7.562;2023-03-03T03:33:20;100919.84;;;0.46;100.00
31761;BME280;18335;51.486;7.562;2023-03-03T03:35:47;100920.34;;;0.37;100.00
31761;BME280;18335;51.486;7.562;2023-03-03T03:38:15;100927.09;;;0.28;100.00
31761;BME280;18335;51.486;7.562;2023-03-03T03:40:42;100927.78;;;0.32;100.00
31761;BME280;18335;51.486;7.562;2023-03-03T03:43:10;100939.84;;;0.40;100.00
31761;BME280;18335;51.486;7.562;2023-03-03T03:45:36;100934.19;;;0.45;100.00
31761;BME280;18335;51.486;7.562;2023-03-03T03:48:04;100944.88;;;0.46;100.00
31761;BME280;18335;51.486;7.562;2023-03-03T03:50:33;100943.28;;;0.27;100.00
31761;BME280;18335;51.486;7.562;2023-03-03T03:53:00;100947.91;;;0.08;100.00
31761;BME280;18335;51.486;7.562;2023-03-03T03:55:27;100953.09;;;0.11;100.00
31761;BME280;18335;51.486;7.562;2023-03-03T03:57:54;100935.25;;;0.10;100.00
31761;BME280;18335;51.486;7.562;2023-03-03T04:00:22;100935.25;;;0.10;100.00
31761;BME280;18335;51.486;7.562;2023-03-03T04:02:55;100943.34;;;0.25;100.00
31761;BME280;18335;51.486;7.562;2023-03-03T04:05:22;100950.09;;;0.17;100.00
31761;BME280;18335;51.486;7.562;2023-03-03T04:07:50;100939.47;;;0.31;100.00
31761;BME280;18335;51.486;7.562;2023-03-03T04:10:18;100936.38;;;0.38;100.00
31761;BME280;18335;51.486;7.562;2023-03-03T04:12:46;100938.97;;;0.40;100.00
31761;BME280;18335;51.486;7.562;2023-03-03T04:15:13;100947.44;;;0.48;100.00
31761;BME280;18335;51.486;7.562;2023-03-03T04:17:41;100939.13;;;0.37;100.00
31761;BME280;18335;51.486;7.562;2023-03-03T04:20:10;100938.63;;;0.46;100.00
31761;BME280;18335;51.486;7.562;2023-03-03T04:22:38;100943.56;;;0.38;100.00
31761;BME280;18335;51.486;7.562;2023-03-03T04:25:08;100947.78;;;0.42;100.00
31761;BME280;18335;51.486;7.562;2023-03-03T04:27:40;100940.97;;;0.52;100.00
31761;BME280;18335;51.486;7.562;2023-03-03T04:30:09;100947.97;;;0.39;100.00
31761;BME280;18335;51.486;7.562;2023-03-03T04:32:37;100950.66;;;0.39;100.00
31761;BME280;18335;51.486;7.562;2023-03-03T04:35:08;100940.72;;;0.41;100.00
31761;BME280;18335;51.486;7.562;2023-03-03T04:37:38;100940.53;;;0.44;100.00
31761;BME280;18335;51.486;7.562;2023-03-03T04:40:09;100942.25;;;0.45;100.00
31761;BME280;18335;51.486;7.562;2023-03-03T04:42:36;100949.53;;;0.43;100.00
31761;BME280;18335;51.486;7.562;2023-03-03T04:45:06;100948.81;;;0.39;100.00
31761;BME280;18335;51.486;7.562;2023-03-03T04:47:33;100951.78;;;0.35;100.00
31761;BME280;18335;51.486;7.562;2023-03-03T04:50:00;100948.59;;;0.44;100.00
31761;BME280;18335;51.486;7.562;2023-03-03T04:52:30;100944.69;;;0.49;100.00
31761;BME280;18335;51.486;7.562;2023-03-03T04:54:57;100946.00;;;0.58;100.00
31761;BME280;18335;51.486;7.562;2023-03-03T04:57:26;100946.44;;;0.50;100.00
31761;BME280;18335;51.486;7.562;2023-03-03T04:59:53;100940.03;;;0.53;100.00
31761;BME280;18335;51.486;7.562;2023-03-03T05:02:21;100944.94;;;0.45;100.00
31761;BME280;18335;51.486;7.562;2023-03-03T05:04:49;100945.75;;;0.47;100.00
31761;BME280;18335;51.486;7.562;2023-03-03T05:07:15;100943.81;;;0.49;100.00
31761;BME280;18335;51.486;7.562;2023-03-03T05:09:44;100951.78;;;0.35;100.00
31761;BME280;18335;51.486;7.562;2023-03-03T05:12:11;100946.34;;;0.52;100.00
31761;BME280;18335;51.486;7.562;2023-03-03T05:14:39;100951.66;;;0.53;100.00
31761;BME280;18335;51.486;7.562;2023-03-03T05:17:06;100941.75;;;0.54;100.00
31761;BME280;18335;51.486;7.562;2023-03-03T05:19:33;100935.78;;;0.49;100.00
31761;BME280;18335;51.486;7.562;2023-03-03T05:22:00;100944.38;;;0.55;100.00
31761;BME280;18335;51.486;7.562;2023-03-03T05:24:27;100935.94;;;0.46;100.00
31761;BME280;18335;51.486;7.562;2023-03-03T05:26:54;100940.81;;;0.55;100.00
31761;BME280;18335;51.486;7.562;2023-03-03T05:29:20;100940.81;;;0.55;100.00
31761;BME280;18335;51.486;7.562;2023-03-03T05:31:49;100942.41;;;0.42;100.00
31761;BME280;18335;51.486;7.562;2023-03-03T05:34:15;100945.09;;;0.42;100.00
31761;BME280;18335;51.486;7.562;2023-03-03T05:36:42;100942.09;;;0.48;100.00
31761;BME280;18335;51.486;7.562;2023-03-03T05:39:09;100946.34;;;0.52;100.00
31761;BME280;18335;51.486;7.562;2023-03-03T05:41:35;100951.63;;;0.69;100.00
31761;BME280;18335;51.486;7.562;2023-03-03T05:44:02;100947.97;;;0.39;100.00
31761;BME280;18335;51.486;7.562;2023-03-03T05:46:29;100950.31;;;0.45;100.00
31761;BME280;18335;51.486;7.562;2023-03-03T05:48:57;100952.66;;;0.35;100.00
31761;BME280;18335;51.486;7.562;2023-03-03T05:51:24;100952.56;;;0.37;100.00
31761;BME280;18335;51.486;7.562;2023-03-03T05:53:50;100949.53;;;0.43;100.00
31761;BME280;18335;51.486;7.562;2023-03-03T05:56:17;100948.59;;;0.44;100.00
31761;BME280;18335;51.486;7.562;2023-03-03T05:58:44;100950.19;;;0.31;100.00
31761;BME280;18335;51.486;7.562;2023-03-03T06:01:11;100946.81;;;0.27;100.00
31761;BME280;18335;51.486;7.562;2023-03-03T06:03:38;100954.03;;;0.27;100.00
31761;BME280;18335;51.486;7.562;2023-03-03T06:06:06;100954.81;;;0.29;100.00
31761;BME280;18335;51.486;7.562;2023-03-03T06:08:34;100967.44;;;0.27;100.00
31761;BME280;18335;51.486;7.562;2023-03-03T06:11:00;100966.81;;;0.22;100.00
31761;BME280;18335;51.486;7.562;2023-03-03T06:13:28;100969.38;;;0.40;100.00
31761;BME280;18335;51.486;7.562;2023-03-03T06:15:54;100965.97;;;0.37;100.00
31761;BME280;18335;51.486;7.562;2023-03-03T06:18:21;100976.31;;;0.44;100.00
31761;BME280;18335;51.486;7.562;2023-03-03T06:20:50;100967.28;;;0.45;100.00
31761;BME280;18335;51.486;7.562;2023-03-03T06:23:19;100970.34;;;0.55;100.00
31761;BME280;18335;51.486;7.562;2023-03-03T06:25:46;100973.19;;;0.52;100.00
31761;BME280;18335;51.486;7.562;2023-03-03T06:28:12;100983.31;;;0.47;100.00
31761;BME280;18335;51.486;7.562;2023-03-03T06:30:39;100987.69;;;0.65;100.00
31761;BME280;18335;51.486;7.562;2023-03-03T06:33:06;100990.38;;;0.65;100.00
31761;BME280;18335;51.486;7.562;2023-03-03T06:35:33;100988.47;;;0.67;100.00
31761;BME280;18335;51.486;7.562;2023-03-03T06:38:00;100988.72;;;0.63;100.00
31761;BME280;18335;51.486;7.562;2023-03-03T06:40:28;100999.63;;;0.60;100.00
31761;BME280;18335;51.486;7.562;2023-03-03T06:42:55;100994.94;;;0.63;100.00
31761;BME280;18335;51.486;7.562;2023-03-03T06:45:21;100998.63;;;0.45;100.00
31761;BME280;18335;51.486;7.562;2023-03-03T06:47:48;101003.22;;;0.43;100.00
31761;BME280;18335;51.486;7.562;2023-03-03T06:50:17;100998.59;;;0.62;100.00
31761;BME280;18335;51.486;7.562;2023-03-03T06:52:45;101012.91;;;0.45;100.00
31761;BME280;18335;51.486;7.562;2023-03-03T06:55:17;101005.94;;;0.59;100.00
31761;BME280;18335;51.486;7.562;2023-03-03T06:57:48;101009.00;;;0.68;100.00
31761;BME280;18335;51.486;7.562;2023-03-03T07:00:23;101007.44;;;0.64;100.00
31761;BME280;18335;51.486;7.562;2023-03-03T07:02:56;101002.72;;;0.52;100.00
31761;BME280;18335;51.486;7.562;2023-03-03T07:05:25;101010.16;;;0.47;100.00
31761;BME280;18335;51.486;7.562;2023-03-03T07:07:53;101012.06;;;0.45;100.00
31761;BME280;18335;51.486;7.562;2023-03-03T07:10:24;101012.25;;;0.57;100.00
31761;BME280;18335;51.486;7.562;2023-03-03T07:12:52;101008.47;;;0.62;100.00
31761;BME280;18335;51.486;7.562;2023-03-03T07:15:21;101016.16;;;0.52;100.00
31761;BME280;18335;51.486;7.562;2023-03-03T07:17:52;101015.44;;;0.48;100.00
31761;BME280;18335;51.486;7.562;2023-03-03T07:20:24;101019.22;;;0.62;100.00
31761;BME280;18335;51.486;7.562;2023-03-03T07:22:53;101020.16;;;0.61;100.00
31761;BME280;18335;51.486;7.562;2023-03-03T07:25:25;101018.94;;;0.66;100.00
31761;BME280;18335;51.486;7.562;2023-03-03T07:27:57;101027.53;;;0.73;100.00
31761;BME280;18335;51.486;7.562;2023-03-03T07:30:27;101033.06;;;0.70;100.00
31761;BME280;18335;51.486;7.562;2023-03-03T07:32:54;101045.78;;;0.50;100.00
31761;BME280;18335;51.486;7.562;2023-03-03T07:35:32;101044.47;;;0.57;100.00
31761;BME280;18335;51.486;7.562;2023-03-03T07:38:01;101037.66;;;0.68;100.00
31761;BME280;18335;51.486;7.562;2023-03-03T07:40:34;101044.84;;;0.67;100.00
31761;BME280;18335;51.486;7.562;2023-03-03T07:43:22;101044.69;;;0.70;100.00
31761;BME280;18335;51.486;7.562;2023-03-03T07:45:52;101049.28;;;0.68;100.00
31761;BME280;18335;51.486;7.562;2023-03-03T07:48:24;101051.31;;;0.80;100.00
31761;BME280;18335;51.486;7.562;2023-03-03T07:50:52;101052.06;;;0.82;100.00
31761;BME280;18335;51.486;7.562;2023-03-03T07:53:25;101056.09;;;0.58;100.00
31761;BME280;18335;51.486;7.562;2023-03-03T07:55:53;101059.94;;;0.70;100.00
31761;BME280;18335;51.486;7.562;2023-03-03T07:58:23;101063.38;;;0.56;100.00
31761;BME280;18335;51.486;7.562;2023-03-03T08:03:49;101071.44;;;0.56;100.00
31761;BME280;18335;51.486;7.562;2023-03-03T08:06:41;101080.03;;;0.78;100.00
31761;BME280;18335;51.486;7.562;2023-03-03T08:09:36;101081.19;;;0.74;100.00
31761;BME280;18335;51.486;7.562;2023-03-03T08:12:34;101077.47;;;0.77;100.00
31761;BME280;18335;51.486;7.562;2023-03-03T08:15:30;101083.03;;;0.89;100.00
31761;BME280;18335;51.486;7.562;2023-03-03T08:17:59;101077.84;;;1.02;100.00
31761;BME280;18335;51.486;7.562;2023-03-03T08:20:42;101088.25;;;0.92;100.00
31761;BME280;18335;51.486;7.562;2023-03-03T08:23:10;101079.88;;;0.81;100.00
31761;BME280;18335;51.486;7.562;2023-03-03T08:25:38;101091.94;;;0.74;100.00
31761;BME280;18335;51.486;7.562;2023-03-03T08:28:05;101091.38;;;0.68;100.00
31761;BME280;18335;51.486;7.562;2023-03-03T08:30:33;101087.31;;;0.76;100.00
31761;BME280;18335;51.486;7.562;2023-03-03T08:33:00;101088.75;;;0.83;100.00
31761;BME280;18335;51.486;7.562;2023-03-03T08:35:27;101098.44;;;0.86;100.00
31761;BME280;18335;51.486;7.562;2023-03-03T08:37:54;101095.13;;;0.81;100.00
31761;BME280;18335;51.486;7.562;2023-03-03T08:40:21;101098.69;;;0.81;100.00
31761;BME280;18335;51.486;7.562;2023-03-03T08:42:47;101105.19;;;0.77;100.00
31761;BME280;18335;51.486;7.562;2023-03-03T08:45:14;101106.56;;;0.84;100.00
31761;BME280;18335;51.486;7.562;2023-03-03T08:47:42;101113.38;;;0.91;100.00
31761;BME280;18335;51.486;7.562;2023-03-03T08:50:10;101119.50;;;0.93;100.00
31761;BME280;18335;51.486;7.562;2023-03-03T08:52:37;101119.06;;;0.85;100.00
31761;BME280;18335;51.486;7.562;2023-03-03T08:55:04;101108.75;;;0.93;100.00
31761;BME280;18335;51.486;7.562;2023-03-03T08:57:31;101118.81;;;0.90;100.00
31761;BME280;18335;51.486;7.562;2023-03-03T08:59:58;101116.25;;;0.71;100.00
31761;BME280;18335;51.486;7.562;2023-03-03T09:02:25;101116.44;;;0.68;100.00
31761;BME280;18335;51.486;7.562;2023-03-03T09:04:53;101117.31;;;0.84;100.00
31761;BME280;18335;51.486;7.562;2023-03-03T09:07:20;101119.94;;;0.86;100.00
31761;BME280;18335;51.486;7.562;2023-03-03T09:09:46;101118.47;;;0.96;100.00
31761;BME280;18335;51.486;7.562;2023-03-03T09:12:15;101122.94;;;1.13;100.00
31761;BME280;18335;51.486;7.562;2023-03-03T09:14:42;101119.09;;;1.17;100.00
31761;BME280;18335;51.486;7.562;2023-03-03T09:17:23;101120.84;;;1.18;100.00
31761;BME280;18335;51.486;7.562;2023-03-03T09:19:50;101126.44;;;1.30;100.00
31761;BME280;18335;51.486;7.562;2023-03-03T09:22:21;101125.72;;;1.27;100.00
31761;BME280;18335;51.486;7.562;2023-03-03T09:24:49;101122.25;;;1.25;100.00
31761;BME280;18335;51.486;7.562;2023-03-03T09:27:26;101121.75;;;1.34;100.00
31761;BME280;18335;51.486;7.562;2023-03-03T09:29:53;101122.94;;;1.13;100.00
31761;BME280;18335;51.486;7.562;2023-03-03T09:32:26;101124.94;;;1.25;100.00
31761;BME280;18335;51.486;7.562;2023-03-03T09:34:55;101116.38;;;1.34;100.00
31761;BME280;18335;51.486;7.562;2023-03-03T09:37:26;101121.25;;;1.43;100.00
31761;BME280;18335;51.486;7.562;2023-03-03T09:39:57;101122.78;;;1.47;100.00
31761;BME280;18335;51.486;7.562;2023-03-03T09:42:46;101120.53;;;1.55;100.00
31761;BME280;18335;51.486;7.562;2023-03-03T09:45:35;101129.72;;;1.35;100.00
31761;BME280;18335;51.486;7.562;2023-03-03T09:48:28;101133.03;;;1.40;100.00
31761;BME280;18335;51.486;7.562;2023-03-03T09:51:07;101140.50;;;1.51;100.00
31761;BME280;18335;51.486;7.562;2023-03-03T09:53:50;101148.47;;;1.37;100.00
31761;BME280;18335;51.486;7.562;2023-03-03T09:56:24;101148.81;;;1.46;100.00
31761;BME280;18335;51.486;7.562;2023-03-03T09:59:04;101151.41;;;1.48;100.00
31761;BME280;18335;51.486;7.562;2023-03-03T10:01:50;101152.91;;;1.69;100.00
31761;BME280;18335;51.486;7.562;2023-03-03T10:04:43;101157.34;;;1.70;100.00
31761;BME280;18335;51.486;7.562;2023-03-03T10:07:22;101149.00;;;1.75;100.00
31761;BME280;18335;51.486;7.562;2023-03-03T10:12:59;101152.28;;;1.80;100.00
31761;BME280;18335;51.486;7.562;2023-03-03T10:15:36;101152.97;;;1.83;100.00
31761;BME280;18335;51.486;7.562;2023-03-03T10:18:12;101158.06;;;2.03;100.00
31761;BME280;18335;51.486;7.562;2023-03-03T10:20:46;101158.75;;;2.07;100.00
31761;BME280;18335;51.486;7.562;2023-03-03T10:23:20;101153.00;;;2.13;100.00
31761;BME280;18335;51.486;7.562;2023-03-03T10:25:54;101159.31;;;2.28;100.00
31761;BME280;18335;51.486;7.562;2023-03-03T10:28:52;101175.03;;;2.35;100.00
31761;BME280;18335;51.486;7.562;2023-03-03T10:31:34;101168.38;;;2.27;100.00
31761;BME280;18335;51.486;7.562;2023-03-03T10:34:13;101172.50;;;2.48;100.00
31761;BME280;18335;51.486;7.562;2023-03-03T10:36:50;101171.09;;;2.41;100.00
31761;BME280;18335;51.486;7.562;2023-03-03T10:39:35;101180.13;;;2.40;100.00
31761;BME280;18335;51.486;7.562;2023-03-03T10:42:22;101176.50;;;2.41;100.00
31761;BME280;18335;51.486;7.562;2023-03-03T10:45:05;101170.91;;;2.14;100.00
31761;BME280;18335;51.486;7.562;2023-03-03T10:47:49;101178.34;;;2.24;100.00
31761;BME280;18335;51.486;7.562;2023-03-03T10:50:24;101177.28;;;2.27;100.00
31761;BME280;18335;51.486;7.562;2023-03-03T10:52:57;101168.81;;;2.19;100.00
31761;BME280;18335;51.486;7.562;2023-03-03T10:55:39;101171.06;;;2.27;100.00
31761;BME280;18335;51.486;7.562;2023-03-03T10:58:35;101178.34;;;2.54;100.00
31761;BME280;18335;51.486;7.562;2023-03-03T11:01:10;101171.59;;;2.17;100.00
31761;BME280;18335;51.486;7.562;2023-03-03T11:03:50;101170.63;;;2.18;100.00
31761;BME280;18335;51.486;7.562;2023-03-03T11:06:24;101178.25;;;2.42;100.00
31761;BME280;18335;51.486;7.562;2023-03-03T11:08:54;101171.34;;;2.66;100.00
31761;BME280;18335;51.486;7.562;2023-03-03T11:11:30;101172.78;;;2.57;100.00
31761;BME280;18335;51.486;7.562;2023-03-03T11:14:07;101172.31;;;2.51;100.00
31761;BME280;18335;51.486;7.562;2023-03-03T11:16:49;101169.13;;;2.58;100.00
31761;BME280;18335;51.486;7.562;2023-03-03T11:19:28;101167.59;;;2.98;100.00
31761;BME280;18335;51.486;7.562;2023-03-03T11:22:05;101164.31;;;3.07;100.00
31761;BME280;18335;51.486;7.562;2023-03-03T11:24:50;101170.03;;;2.87;100.00
31761;BME280;18335;51.486;7.562;2023-03-03T11:27:30;101170.91;;;2.88;100.00
31761;BME280;18335;51.486;7.562;2023-03-03T11:30:24;101166.59;;;2.99;100.00
31761;BME280;18335;51.486;7.562;2023-03-03T11:33:00;101167.63;;;2.68;100.00
31761;BME280;18335;51.486;7.562;2023-03-03T11:35:36;101168.41;;;2.70;100.00
31761;BME280;18335;51.486;7.562;2023-03-03T11:38:20;101172.31;;;2.51;100.00
31761;BME280;18335;51.486;7.562;2023-03-03T11:40:52;101166.81;;;2.52;100.00
31761;BME280;18335;51.486;7.562;2023-03-03T11:43:26;101161.56;;;2.79;100.00
31761;BME280;18335;51.486;7.562;2023-03-03T11:45:58;101161.00;;;2.88;100.00
31761;BME280;18335;51.486;7.562;2023-03-03T11:48:35;101157.44;;;3.02;100.00
31761;BME280;18335;51.486;7.562;2023-03-03T11:51:05;101160.84;;;3.19;100.00
31761;BME280;18335;51.486;7.562;2023-03-03T11:53:43;101155.63;;;2.88;100.00
31761;BME280;18335;51.486;7.562;2023-03-03T11:56:20;101149.97;;;3.07;100.00
31761;BME280;18335;51.486;7.562;2023-03-03T11:58:53;101147.44;;;3.32;100.00
31761;BME280;18335;51.486;7.562;2023-03-03T12:01:29;101154.88;;;3.28;100.00
31761;BME280;18335;51.486;7.562;2023-03-03T12:04:02;101146.88;;;3.13;100.00
31761;BME280;18335;51.486;7.562;2023-03-03T12:06:35;101152.06;;;2.88;100.00
31761;BME280;18335;51.486;7.562;2023-03-03T12:09:14;101137.63;;;3.31;100.00
31761;BME280;18335;51.486;7.562;2023-03-03T12:11:47;101139.25;;;2.91;100.00
31761;BME280;18335;51.486;7.562;2023-03-03T12:14:23;101145.06;;;3.13;100.00
31761;BME280;18335;51.486;7.562;2023-03-03T12:16:57;101132.47;;;3.41;100.00
31761;BME280;18335;51.486;7.562;2023-03-03T12:19:30;101127.56;;;3.47;100.00
31761;BME280;18335;51.486;7.562;2023-03-03T12:22:26;101126.31;;;3.53;100.00
31761;BME280;18335;51.486;7.562;2023-03-03T12:25:03;101121.84;;;3.25;100.00
31761;BME280;18335;51.486;7.562;2023-03-03T12:27:39;101123.25;;;3.45;100.00
31761;BME280;18335;51.486;7.562;2023-03-03T12:30:17;101127.72;;;3.72;100.00
31761;BME280;18335;51.486;7.562;2023-03-03T12:33:09;101124.91;;;3.74;100.00
31761;BME280;18335;51.486;7.562;2023-03-03T12:35:42;101120.38;;;3.74;100.00
31761;BME280;18335;51.486;7.562;2023-03-03T12:38:20;101115.84;;;4.02;100.00
31761;BME280;18335;51.486;7.562;2023-03-03T12:40:55;101115.09;;;3.59;100.00
31761;BME280;18335;51.486;7.562;2023-03-03T12:43:38;101121.50;;;3.44;100.00
31761;BME280;18335;51.486;7.562;2023-03-03T12:46:15;101122.38;;;3.58;100.00
31761;BME280;18335;51.486;7.562;2023-03-03T12:48:45;101123.19;;;3.73;100.00
31761;BME280;18335;51.486;7.562;2023-03-03T12:51:20;101115.16;;;3.45;100.00
31761;BME280;18335;51.486;7.562;2023-03-03T12:54:13;101133.88;;;3.19;100.00
31761;BME280;18335;51.486;7.562;2023-03-03T12:56:45;101126.50;;;3.64;100.00
31761;BME280;18335;51.486;7.562;2023-03-03T12:59:19;101120.53;;;3.85;100.00
31761;BME280;18335;51.486;7.562;2023-03-03T13:02:01;101116.84;;;4.13;100.00
31761;BME280;18335;51.486;7.562;2023-03-03T13:04:37;101116.47;;;4.32;100.00
31761;BME280;18335;51.486;7.562;2023-03-03T13:07:11;101112.94;;;3.78;100.00
31761;BME280;18335;51.486;7.562;2023-03-03T13:09:54;101119.09;;;3.80;100.00
31761;BME280;18335;51.486;7.562;2023-03-03T13:12:31;101122.06;;;3.63;100.00
31761;BME280;18335;51.486;7.562;2023-03-03T13:15:06;101117.38;;;3.79;100.00
31761;BME280;18335;51.486;7.562;2023-03-03T13:17:40;101115.75;;;4.03;100.00
31761;BME280;18335;51.486;7.562;2023-03-03T13:20:19;101123.41;;;3.97;100.00